Offutt, Kentucky
Current Conditions -  °F | °C
As of 12:35 PM on Thursday 30 Oct 2014 (Local Time) from KSJS Reporting Station
Overcast Overcast  
Wind Chill: 48°   Ceiling: 3300
Heat Index: 48°   Visibility: 10mi
Dew Point: 36°   Wind: 0mph
Humidity: 63%   Direction: NA
Pressure: 30.14"   Gusts: NA
Location:  37.7517°N, 82.9074°W
Report Text: KSJS 301635Z AUTO 00000KT 10SM OVC033 09/02 A3014 RMK AO2 T00870020
Loading
Personal Weather Stations






























Interactive Weather Map
Tropical Storm Tracking
New forecast layout! Learn more

10-Day Weather Forecast

Advertisements
Track Severe Weather on mobile